sensor_id;sensor_type;location;lat;lon;timestamp;pressure;altitude;pressure_sealevel;temperature;humidity
61318;BME280;47201;40.428;-8.436;2023-07-29T00:01:30;100660.44;;;22.82;100.00
61318;BME280;47201;40.428;-8.436;2023-07-29T00:03:31;100664.28;;;22.76;100.00
61318;BME280;47201;40.428;-8.436;2023-07-29T00:05:32;100658.03;;;22.77;100.00
61318;BME280;47201;40.428;-8.436;2023-07-29T00:07:33;100658.72;;;22.81;100.00
61318;BME280;47201;40.428;-8.436;2023-07-29T00:09:33;100650.03;;;22.77;100.00
61318;BME280;47201;40.428;-8.436;2023-07-29T00:11:34;100652.53;;;22.80;100.00
61318;BME280;47201;40.428;-8.436;2023-07-29T00:13:35;100650.22;;;22.74;100.00
61318;BME280;47201;40.428;-8.436;2023-07-29T00:15:35;100649.19;;;22.77;100.00
61318;BME280;47201;40.428;-8.436;2023-07-29T00:17:36;100638.84;;;22.71;100.00
61318;BME280;47201;40.428;-8.436;2023-07-29T00:19:36;100642.28;;;22.73;100.00
61318;BME280;47201;40.428;-8.436;2023-07-29T00:21:37;100636.44;;;22.66;100.00
61318;BME280;47201;40.428;-8.436;2023-07-29T00:23:38;100635.78;;;22.61;100.00
61318;BME280;47201;40.428;-8.436;2023-07-29T00:25:39;100627.81;;;22.61;100.00
61318;BME280;47201;40.428;-8.436;2023-07-29T00:27:39;100625.41;;;22.56;100.00
61318;BME280;47201;40.428;-8.436;2023-07-29T00:29:40;100618.19;;;22.58;100.00
61318;BME280;47201;40.428;-8.436;2023-07-29T00:31:41;100616.63;;;22.54;100.00
61318;BME280;47201;40.428;-8.436;2023-07-29T00:33:41;100618.38;;;22.55;100.00
61318;BME280;47201;40.428;-8.436;2023-07-29T00:35:42;100622.28;;;22.48;100.00
61318;BME280;47201;40.428;-8.436;2023-07-29T00:37:42;100616.78;;;22.51;100.00
61318;BME280;47201;40.428;-8.436;2023-07-29T00:39:45;100616.09;;;22.47;100.00
61318;BME280;47201;40.428;-8.436;2023-07-29T00:41:46;100617.72;;;22.50;100.00
61318;BME280;47201;40.428;-8.436;2023-07-29T00:43:46;100613.50;;;22.46;100.00
61318;BME280;47201;40.428;-8.436;2023-07-29T00:45:47;100605.34;;;22.49;100.00
61318;BME280;47201;40.428;-8.436;2023-07-29T00:47:48;100609.97;;;22.45;100.00
61318;BME280;47201;40.428;-8.436;2023-07-29T00:49:51;100611.78;;;22.45;100.00
61318;BME280;47201;40.428;-8.436;2023-07-29T00:51:51;100601.94;;;22.47;100.00
61318;BME280;47201;40.428;-8.436;2023-07-29T00:53:52;100604.75;;;22.44;100.00
61318;BME280;47201;40.428;-8.436;2023-07-29T00:55:53;100602.94;;;22.44;100.00
61318;BME280;47201;40.428;-8.436;2023-07-29T00:57:57;100598.47;;;22.45;100.00
61318;BME280;47201;40.428;-8.436;2023-07-29T00:59:58;100596.75;;;22.44;100.00
61318;BME280;47201;40.428;-8.436;2023-07-29T01:01:59;100598.56;;;22.43;100.00
61318;BME280;47201;40.428;-8.436;2023-07-29T01:04:00;100602.88;;;22.46;100.00
61318;BME280;47201;40.428;-8.436;2023-07-29T01:08:33;100594.88;;;22.46;100.00
61318;BME280;47201;40.428;-8.436;2023-07-29T01:10:48;100592.53;;;22.40;100.00
61318;BME280;47201;40.428;-8.436;2023-07-29T01:13:06;100591.41;;;22.44;100.00
61318;BME280;47201;40.428;-8.436;2023-07-29T01:15:18;100588.22;;;22.37;100.00
61318;BME280;47201;40.428;-8.436;2023-07-29T01:17:24;100587.22;;;22.40;100.00
61318;BME280;47201;40.428;-8.436;2023-07-29T01:21:58;100584.56;;;22.40;100.00
61318;BME280;47201;40.428;-8.436;2023-07-29T01:23:59;100587.34;;;22.37;100.00
61318;BME280;47201;40.428;-8.436;2023-07-29T01:26:01;100577.72;;;22.34;100.00
61318;BME280;47201;40.428;-8.436;2023-07-29T01:28:01;100573.56;;;22.28;100.00
61318;BME280;47201;40.428;-8.436;2023-07-29T01:30:02;100578.72;;;22.31;100.00
61318;BME280;47201;40.428;-8.436;2023-07-29T01:32:37;100573.56;;;22.28;100.00
61318;BME280;47201;40.428;-8.436;2023-07-29T01:34:45;100578.13;;;22.26;100.00
61318;BME280;47201;40.428;-8.436;2023-07-29T01:36:49;100576.47;;;22.24;100.00
61318;BME280;47201;40.428;-8.436;2023-07-29T01:38:52;100583.69;;;22.22;100.00
61318;BME280;47201;40.428;-8.436;2023-07-29T01:40:56;100575.75;;;22.20;100.00
61318;BME280;47201;40.428;-8.436;2023-07-29T01:42:56;100584.69;;;22.19;100.00
61318;BME280;47201;40.428;-8.436;2023-07-29T01:44:59;100579.31;;;22.21;100.00
61318;BME280;47201;40.428;-8.436;2023-07-29T01:47:00;100572.34;;;22.18;100.00
61318;BME280;47201;40.428;-8.436;2023-07-29T01:49:00;100579.22;;;22.22;100.00
61318;BME280;47201;40.428;-8.436;2023-07-29T01:51:01;100577.66;;;22.18;100.00
61318;BME280;47201;40.428;-8.436;2023-07-29T01:53:02;100578.28;;;22.23;100.00
61318;BME280;47201;40.428;-8.436;2023-07-29T01:55:02;100580.25;;;22.19;100.00
61318;BME280;47201;40.428;-8.436;2023-07-29T01:57:03;100576.69;;;22.19;100.00
61318;BME280;47201;40.428;-8.436;2023-07-29T01:59:04;100580.94;;;22.23;100.00
61318;BME280;47201;40.428;-8.436;2023-07-29T02:01:05;100577.66;;;22.18;100.00
61318;BME280;47201;40.428;-8.436;2023-07-29T02:03:05;100578.28;;;22.23;100.00
61318;BME280;47201;40.428;-8.436;2023-07-29T02:05:06;100582.19;;;22.16;100.00
61318;BME280;47201;40.428;-8.436;2023-07-29T02:07:07;100578.50;;;22.18;100.00
61318;BME280;47201;40.428;-8.436;2023-07-29T02:09:08;100584.69;;;22.19;100.00
61318;BME280;47201;40.428;-8.436;2023-07-29T02:11:08;100581.09;;;22.20;100.00
61318;BME280;47201;40.428;-8.436;2023-07-29T02:13:09;100574.03;;;22.19;100.00
61318;BME280;47201;40.428;-8.436;2023-07-29T02:15:10;100568.81;;;22.17;100.00
61318;BME280;47201;40.428;-8.436;2023-07-29T02:17:10;100569.59;;;22.19;100.00
61318;BME280;47201;40.428;-8.436;2023-07-29T02:19:11;100565.91;;;22.22;100.00
61318;BME280;47201;40.428;-8.436;2023-07-29T02:21:11;100560.81;;;22.17;100.00
61318;BME280;47201;40.428;-8.436;2023-07-29T02:23:12;100560.81;;;22.17;100.00
61318;BME280;47201;40.428;-8.436;2023-07-29T02:25:13;100555.81;;;22.11;100.00
61318;BME280;47201;40.428;-8.436;2023-07-29T02:27:13;100551.44;;;22.10;100.00
61318;BME280;47201;40.428;-8.436;2023-07-29T02:29:14;100549.66;;;22.11;100.00
61318;BME280;47201;40.428;-8.436;2023-07-29T02:31:17;100542.75;;;22.07;100.00
61318;BME280;47201;40.428;-8.436;2023-07-29T02:33:19;100550.97;;;22.02;100.00
61318;BME280;47201;40.428;-8.436;2023-07-29T02:35:20;100542.97;;;22.02;100.00
61318;BME280;47201;40.428;-8.436;2023-07-29T02:37:21;100542.28;;;21.98;100.00
61318;BME280;47201;40.428;-8.436;2023-07-29T02:39:21;100545.81;;;21.99;100.00
61318;BME280;47201;40.428;-8.436;2023-07-29T02:41:22;100537.38;;;21.91;100.00
61318;BME280;47201;40.428;-8.436;2023-07-29T02:43:22;100534.09;;;21.85;100.00
61318;BME280;47201;40.428;-8.436;2023-07-29T02:45:23;100539.34;;;21.87;100.00
61318;BME280;47201;40.428;-8.436;2023-07-29T02:47:24;100541.19;;;21.85;100.00
61318;BME280;47201;40.428;-8.436;2023-07-29T02:49:27;100542.78;;;21.89;100.00
61318;BME280;47201;40.428;-8.436;2023-07-29T02:51:28;100538.53;;;21.85;100.00
61318;BME280;47201;40.428;-8.436;2023-07-29T02:53:28;100538.41;;;21.88;100.00
61318;BME280;47201;40.428;-8.436;2023-07-29T02:55:29;100540.28;;;21.86;100.00
61318;BME280;47201;40.428;-8.436;2023-07-29T02:57:30;100533.22;;;21.85;100.00
61318;BME280;47201;40.428;-8.436;2023-07-29T02:59:30;100535.66;;;21.90;100.00
61318;BME280;47201;40.428;-8.436;2023-07-29T03:01:31;100537.69;;;21.84;100.00
61318;BME280;47201;40.428;-8.436;2023-07-29T03:03:32;100535.28;;;21.80;100.00
61318;BME280;47201;40.428;-8.436;2023-07-29T03:05:32;100536.28;;;21.77;100.00
61318;BME280;47201;40.428;-8.436;2023-07-29T03:07:33;100534.00;;;21.69;100.00
61318;BME280;47201;40.428;-8.436;2023-07-29T03:09:34;100533.22;;;21.67;100.00
61318;BME280;47201;40.428;-8.436;2023-07-29T03:11:34;100537.59;;;21.68;100.00
61318;BME280;47201;40.428;-8.436;2023-07-29T03:13:35;100533.22;;;21.67;100.00
61318;BME280;47201;40.428;-8.436;2023-07-29T03:15:36;100530.50;;;21.69;100.00
61318;BME280;47201;40.428;-8.436;2023-07-29T03:17:38;100534.00;;;21.69;100.00
61318;BME280;47201;40.428;-8.436;2023-07-29T03:19:39;100530.41;;;21.70;100.00
61318;BME280;47201;40.428;-8.436;2023-07-29T03:21:39;100525.78;;;21.74;100.00
61318;BME280;47201;40.428;-8.436;2023-07-29T03:23:40;100530.50;;;21.69;100.00
61318;BME280;47201;40.428;-8.436;2023-07-29T03:25:41;100526.97;;;21.68;100.00
61318;BME280;47201;40.428;-8.436;2023-07-29T03:27:41;100523.38;;;21.69;100.00
61318;BME280;47201;40.428;-8.436;2023-07-29T03:29:42;100516.63;;;21.62;100.00
61318;BME280;47201;40.428;-8.436;2023-07-29T03:31:43;100524.63;;;21.62;100.00
61318;BME280;47201;40.428;-8.436;2023-07-29T03:33:43;100521.03;;;21.63;100.00
61318;BME280;47201;40.428;-8.436;2023-07-29T03:35:44;100517.75;;;21.58;100.00
61318;BME280;47201;40.428;-8.436;2023-07-29T03:37:45;100515.84;;;21.60;100.00
61318;BME280;47201;40.428;-8.436;2023-07-29T03:39:46;100517.00;;;21.54;100.00
61318;BME280;47201;40.428;-8.436;2023-07-29T03:41:47;100518.97;;;21.51;100.00
61318;BME280;47201;40.428;-8.436;2023-07-29T03:43:48;100520.13;;;21.45;100.00
61318;BME280;47201;40.428;-8.436;2023-07-29T03:45:49;100521.75;;;21.48;100.00
61318;BME280;47201;40.428;-8.436;2023-07-29T03:47:49;100520.44;;;21.39;100.00
61318;BME280;47201;40.428;-8.436;2023-07-29T03:49:50;100529.25;;;21.39;100.00
61318;BME280;47201;40.428;-8.436;2023-07-29T03:51:57;100530.38;;;21.35;100.00
61318;BME280;47201;40.428;-8.436;2023-07-29T03:53:57;100529.78;;;21.29;100.00
61318;BME280;47201;40.428;-8.436;2023-07-29T03:55:58;100527.34;;;21.24;100.00
61318;BME280;47201;40.428;-8.436;2023-07-29T03:58:00;100521.91;;;21.27;100.00
61318;BME280;47201;40.428;-8.436;2023-07-29T04:00:01;100520.47;;;21.20;100.00
61318;BME280;47201;40.428;-8.436;2023-07-29T04:02:04;100521.56;;;21.16;100.00
61318;BME280;47201;40.428;-8.436;2023-07-29T04:04:04;100524.22;;;21.16;100.00
61318;BME280;47201;40.428;-8.436;2023-07-29T04:06:06;100521.94;;;21.08;100.00
61318;BME280;47201;40.428;-8.436;2023-07-29T04:08:08;100520.00;;;21.12;100.00
61318;BME280;47201;40.428;-8.436;2023-07-29T04:10:09;100520.06;;;21.10;100.00
61318;BME280;47201;40.428;-8.436;2023-07-29T04:12:09;100525.16;;;21.15;100.00
61318;BME280;47201;40.428;-8.436;2023-07-29T04:14:10;100520.13;;;21.08;100.00
61318;BME280;47201;40.428;-8.436;2023-07-29T04:16:11;100520.94;;;21.11;100.00
61318;BME280;47201;40.428;-8.436;2023-07-29T04:18:11;100515.59;;;21.11;100.00
61318;BME280;47201;40.428;-8.436;2023-07-29T04:20:12;100519.13;;;21.11;100.00
61318;BME280;47201;40.428;-8.436;2023-07-29T04:22:15;100514.28;;;21.19;100.00
61318;BME280;47201;40.428;-8.436;2023-07-29T04:24:16;100514.94;;;21.24;100.00
61318;BME280;47201;40.428;-8.436;2023-07-29T04:26:16;100514.56;;;21.32;100.00
61318;BME280;47201;40.428;-8.436;2023-07-29T04:28:17;100519.25;;;21.45;100.00
61318;BME280;47201;40.428;-8.436;2023-07-29T04:30:18;100517.84;;;21.37;100.00
61318;BME280;47201;40.428;-8.436;2023-07-29T04:32:18;100520.34;;;21.40;100.00
61318;BME280;47201;40.428;-8.436;2023-07-29T04:34:19;100523.31;;;21.34;100.00
61318;BME280;47201;40.428;-8.436;2023-07-29T04:36:20;100522.38;;;21.35;100.00
61318;BME280;47201;40.428;-8.436;2023-07-29T04:38:20;100526.59;;;21.39;100.00
61318;BME280;47201;40.428;-8.436;2023-07-29T04:40:21;100530.84;;;21.44;100.00
61318;BME280;47201;40.428;-8.436;2023-07-29T04:42:23;100532.09;;;21.36;100.00
61318;BME280;47201;40.428;-8.436;2023-07-29T04:44:23;100533.16;;;21.32;100.00
61318;BME280;47201;40.428;-8.436;2023-07-29T04:46:27;100534.09;;;21.31;100.00
61318;BME280;47201;40.428;-8.436;2023-07-29T04:48:28;100528.06;;;21.28;100.00
61318;BME280;47201;40.428;-8.436;2023-07-29T04:50:29;100534.41;;;21.25;100.00
61318;BME280;47201;40.428;-8.436;2023-07-29T04:52:30;100541.53;;;21.24;100.00
61318;BME280;47201;40.428;-8.436;2023-07-29T04:54:31;100539.72;;;21.25;100.00
61318;BME280;47201;40.428;-8.436;2023-07-29T04:56:32;100535.34;;;21.24;100.00
61318;BME280;47201;40.428;-8.436;2023-07-29T04:58:32;100545.03;;;21.25;100.00
61318;BME280;47201;40.428;-8.436;2023-07-29T05:00:35;100539.09;;;21.20;100.00
61318;BME280;47201;40.428;-8.436;2023-07-29T05:02:37;100544.50;;;21.18;100.00
61318;BME280;47201;40.428;-8.436;2023-07-29T05:04:38;100543.78;;;21.15;100.00
61318;BME280;47201;40.428;-8.436;2023-07-29T05:06:38;100543.53;;;21.19;100.00
61318;BME280;47201;40.428;-8.436;2023-07-29T05:08:39;100547.41;;;21.12;100.00
61318;BME280;47201;40.428;-8.436;2023-07-29T05:10:40;100542.09;;;21.12;100.00
61318;BME280;47201;40.428;-8.436;2023-07-29T05:12:40;100543.19;;;21.08;100.00
61318;BME280;47201;40.428;-8.436;2023-07-29T05:14:41;100543.34;;;21.05;100.00
61318;BME280;47201;40.428;-8.436;2023-07-29T05:16:42;100547.63;;;21.07;100.00
61318;BME280;47201;40.428;-8.436;2023-07-29T05:18:43;100551.38;;;21.03;100.00
61318;BME280;47201;40.428;-8.436;2023-07-29T05:20:43;100547.81;;;21.04;100.00
61318;BME280;47201;40.428;-8.436;2023-07-29T05:22:44;100549.97;;;20.96;100.00
61318;BME280;47201;40.428;-8.436;2023-07-29T05:24:45;100555.34;;;20.95;100.00
61318;BME280;47201;40.428;-8.436;2023-07-29T05:26:45;100561.53;;;20.95;100.00
61318;BME280;47201;40.428;-8.436;2023-07-29T05:28:46;100559.50;;;21.00;100.00
61318;BME280;47201;40.428;-8.436;2023-07-29T05:30:47;100565.59;;;21.02;100.00
61318;BME280;47201;40.428;-8.436;2023-07-29T05:32:48;100557.56;;;21.04;100.00
61318;BME280;47201;40.428;-8.436;2023-07-29T05:34:49;100565.47;;;21.05;100.00
61318;BME280;47201;40.428;-8.436;2023-07-29T05:36:49;100561.72;;;21.10;100.00
61318;BME280;47201;40.428;-8.436;2023-07-29T05:38:52;100558.13;;;21.11;100.00
61318;BME280;47201;40.428;-8.436;2023-07-29T05:40:52;100554.84;;;21.05;100.00
61318;BME280;47201;40.428;-8.436;2023-07-29T05:42:53;100550.38;;;21.06;100.00
61318;BME280;47201;40.428;-8.436;2023-07-29T05:44:54;100558.25;;;21.07;100.00
61318;BME280;47201;40.428;-8.436;2023-07-29T05:46:57;100566.03;;;21.12;100.00
61318;BME280;47201;40.428;-8.436;2023-07-29T05:48:58;100567.13;;;21.08;100.00
61318;BME280;47201;40.428;-8.436;2023-07-29T05:50:59;100563.44;;;21.11;100.00
61318;BME280;47201;40.428;-8.436;2023-07-29T05:53:00;100568.63;;;21.14;100.00
61318;BME280;47201;40.428;-8.436;2023-07-29T05:55:01;100567.75;;;21.13;100.00
61318;BME280;47201;40.428;-8.436;2023-07-29T05:57:01;100574.66;;;21.17;100.00
61318;BME280;47201;40.428;-8.436;2023-07-29T05:59:02;100578.78;;;21.23;100.00
61318;BME280;47201;40.428;-8.436;2023-07-29T06:01:03;100573.56;;;21.21;100.00
61318;BME280;47201;40.428;-8.436;2023-07-29T06:03:03;100568.97;;;21.25;100.00
61318;BME280;47201;40.428;-8.436;2023-07-29T06:05:04;100577.94;;;21.22;100.00
61318;BME280;47201;40.428;-8.436;2023-07-29T06:07:06;100576.94;;;21.25;100.00
61318;BME280;47201;40.428;-8.436;2023-07-29T06:09:07;100583.69;;;21.32;100.00
61318;BME280;47201;40.428;-8.436;2023-07-29T06:11:08;100590.41;;;21.39;100.00
61318;BME280;47201;40.428;-8.436;2023-07-29T06:13:08;100593.34;;;21.52;100.00
61318;BME280;47201;40.428;-8.436;2023-07-29T06:15:09;100595.16;;;21.52;100.00
61318;BME280;47201;40.428;-8.436;2023-07-29T06:17:10;100592.97;;;21.60;100.00
61318;BME280;47201;40.428;-8.436;2023-07-29T06:19:11;100600.03;;;21.61;100.00
61318;BME280;47201;40.428;-8.436;2023-07-29T06:21:13;100598.72;;;21.70;100.00
61318;BME280;47201;40.428;-8.436;2023-07-29T06:23:17;100609.81;;;21.78;100.00
61318;BME280;47201;40.428;-8.436;2023-07-29T06:25:19;100602.53;;;21.82;100.00
61318;BME280;47201;40.428;-8.436;2023-07-29T06:27:20;100604.97;;;21.86;100.00
61318;BME280;47201;40.428;-8.436;2023-07-29T06:29:20;100607.63;;;21.86;100.00
61318;BME280;47201;40.428;-8.436;2023-07-29T06:31:21;100605.78;;;21.89;100.00
61318;BME280;47201;40.428;-8.436;2023-07-29T06:33:21;100597.47;;;21.95;100.00
61318;BME280;47201;40.428;-8.436;2023-07-29T06:35:23;100593.03;;;21.95;100.00
61318;BME280;47201;40.428;-8.436;2023-07-29T06:37:27;100604.84;;;22.07;100.00
61318;BME280;47201;40.428;-8.436;2023-07-29T06:39:27;100604.75;;;22.09;100.00
61318;BME280;47201;40.428;-8.436;2023-07-29T06:41:28;100605.13;;;22.18;100.00
61318;BME280;47201;40.428;-8.436;2023-07-29T06:43:28;100611.16;;;22.22;100.00
61318;BME280;47201;40.428;-8.436;2023-07-29T06:45:29;100607.31;;;22.28;100.00
61318;BME280;47201;40.428;-8.436;2023-07-29T06:47:30;100608.63;;;22.37;100.00
61318;BME280;47201;40.428;-8.436;2023-07-29T06:49:30;100613.66;;;22.43;100.00
61318;BME280;47201;40.428;-8.436;2023-07-29T06:51:31;100610.63;;;22.50;100.00
61318;BME280;47201;40.428;-8.436;2023-07-29T06:53:34;100615.47;;;22.60;100.00
61318;BME280;47201;40.428;-8.436;2023-07-29T06:55:35;100624.41;;;22.75;100.00
61318;BME280;47201;40.428;-8.436;2023-07-29T06:57:36;100618.06;;;22.77;100.00
61318;BME280;47201;40.428;-8.436;2023-07-29T06:59:36;100627.78;;;22.78;100.00
61318;BME280;47201;40.428;-8.436;2023-07-29T07:01:37;100622.00;;;22.86;100.00
61318;BME280;47201;40.428;-8.436;2023-07-29T07:03:38;100619.19;;;22.89;100.00
61318;BME280;47201;40.428;-8.436;2023-07-29T07:05:38;100622.16;;;23.01;100.00
61318;BME280;47201;40.428;-8.436;2023-07-29T07:07:39;100627.19;;;23.05;100.00
61318;BME280;47201;40.428;-8.436;2023-07-29T07:09:39;100625.88;;;23.30;100.00
61318;BME280;47201;40.428;-8.436;2023-07-29T07:11:40;100627.72;;;23.60;100.00
61318;BME280;47201;40.428;-8.436;2023-07-29T07:13:40;100628.53;;;23.92;100.00
61318;BME280;47201;40.428;-8.436;2023-07-29T07:15:41;100636.16;;;24.15;100.00
61318;BME280;47201;40.428;-8.436;2023-07-29T07:17:41;100637.03;;;24.30;100.00
61318;BME280;47201;40.428;-8.436;2023-07-29T07:19:42;100643.06;;;24.62;100.00
61318;BME280;47201;40.428;-8.436;2023-07-29T07:21:43;100637.31;;;24.70;100.00
61318;BME280;47201;40.428;-8.436;2023-07-29T07:23:43;100644.94;;;24.76;100.00
61318;BME280;47201;40.428;-8.436;2023-07-29T07:25:44;100648.28;;;24.80;100.00
61318;BME280;47201;40.428;-8.436;2023-07-29T07:27:44;100645.69;;;24.64;100.00
61318;BME280;47201;40.428;-8.436;2023-07-29T07:29:45;100646.63;;;24.48;100.00
61318;BME280;47201;40.428;-8.436;2023-07-29T07:31:49;100651.34;;;24.43;100.00
61318;BME280;47201;40.428;-8.436;2023-07-29T07:33:50;100657.69;;;24.42;100.00
61318;BME280;47201;40.428;-8.436;2023-07-29T07:35:51;100654.03;;;24.43;100.00
61318;BME280;47201;40.428;-8.436;2023-07-29T07:37:51;100661.38;;;24.54;100.00
61318;BME280;47201;40.428;-8.436;2023-07-29T07:39:52;100659.78;;;24.66;100.00
61318;BME280;47201;40.428;-8.436;2023-07-29T07:41:53;100662.69;;;24.77;100.00
61318;BME280;47201;40.428;-8.436;2023-07-29T07:43:53;100663.09;;;24.71;100.00
61318;BME280;47201;40.428;-8.436;2023-07-29T07:45:58;100662.97;;;24.73;100.00
61318;BME280;47201;40.428;-8.436;2023-07-29T07:47:59;100666.47;;;24.59;100.00
61318;BME280;47201;40.428;-8.436;2023-07-29T07:49:59;100665.72;;;24.57;100.00
61318;BME280;47201;40.428;-8.436;2023-07-29T07:52:00;100670.47;;;24.66;100.00
61318;BME280;47201;40.428;-8.436;2023-07-29T07:54:01;100671.09;;;24.71;100.00
61318;BME280;47201;40.428;-8.436;2023-07-29T07:56:01;100670.63;;;24.79;100.00
61318;BME280;47201;40.428;-8.436;2023-07-29T07:58:02;100673.38;;;24.92;100.00
61318;BME280;47201;40.428;-8.436;2023-07-29T08:00:03;100675.41;;;24.88;100.00
61318;BME280;47201;40.428;-8.436;2023-07-29T08:02:13;100677.41;;;24.84;100.00
61318;BME280;47201;40.428;-8.436;2023-07-29T08:04:14;100674.81;;;24.97;100.00
61318;BME280;47201;40.428;-8.436;2023-07-29T08:06:14;100681.41;;;25.06;100.00
61318;BME280;47201;40.428;-8.436;2023-07-29T08:08:15;100673.34;;;25.35;100.00
61318;BME280;47201;40.428;-8.436;2023-07-29T08:10:16;100675.91;;;25.78;100.00
61318;BME280;47201;40.428;-8.436;2023-07-29T08:12:16;100684.00;;;26.19;97.69
61318;BME280;47201;40.428;-8.436;2023-07-29T08:14:17;100687.66;;;26.69;94.27
61318;BME280;47201;40.428;-8.436;2023-07-29T08:16:18;100688.09;;;27.15;91.11
61318;BME280;47201;40.428;-8.436;2023-07-29T08:18:18;100681.34;;;27.59;87.68
61318;BME280;47201;40.428;-8.436;2023-07-29T08:20:20;100685.88;;;28.18;85.80
61318;BME280;47201;40.428;-8.436;2023-07-29T08:22:20;100692.84;;;28.68;80.54
61318;BME280;47201;40.428;-8.436;2023-07-29T08:24:21;100694.34;;;28.84;77.68
61318;BME280;47201;40.428;-8.436;2023-07-29T08:26:22;100697.41;;;29.02;75.80
61318;BME280;47201;40.428;-8.436;2023-07-29T08:28:23;100694.47;;;29.16;74.82
61318;BME280;47201;40.428;-8.436;2023-07-29T08:30:24;100691.31;;;28.88;74.64
61318;BME280;47201;40.428;-8.436;2023-07-29T08:32:28;100689.94;;;28.71;76.36
61318;BME280;47201;40.428;-8.436;2023-07-29T08:34:28;100685.44;;;28.36;77.51
61318;BME280;47201;40.428;-8.436;2023-07-29T08:36:29;100680.78;;;28.02;78.67
61318;BME280;47201;40.428;-8.436;2023-07-29T08:38:29;100688.69;;;27.93;79.67
61318;BME280;47201;40.428;-8.436;2023-07-29T08:40:31;100687.78;;;27.81;80.98
61318;BME280;47201;40.428;-8.436;2023-07-29T08:42:33;100683.81;;;27.62;80.84
61318;BME280;47201;40.428;-8.436;2023-07-29T08:44:42;100687.38;;;27.50;81.95
61318;BME280;47201;40.428;-8.436;2023-07-29T08:46:43;100688.06;;;27.28;83.05
61318;BME280;47201;40.428;-8.436;2023-07-29T08:48:44;100689.50;;;26.82;84.76
61318;BME280;47201;40.428;-8.436;2023-07-29T08:50:46;100697.88;;;26.64;85.56
61318;BME280;47201;40.428;-8.436;2023-07-29T08:52:49;100695.16;;;26.38;86.99
61318;BME280;47201;40.428;-8.436;2023-07-29T08:54:50;100695.31;;;26.09;89.51
61318;BME280;47201;40.428;-8.436;2023-07-29T08:56:51;100692.19;;;25.75;93.01
61318;BME280;47201;40.428;-8.436;2023-07-29T08:58:52;100687.47;;;25.52;95.29
61318;BME280;47201;40.428;-8.436;2023-07-29T09:00:53;100692.06;;;25.49;96.68
61318;BME280;47201;40.428;-8.436;2023-07-29T09:02:54;100692.25;;;25.61;96.30
61318;BME280;47201;40.428;-8.436;2023-07-29T09:04:58;100693.09;;;25.89;94.50
61318;BME280;47201;40.428;-8.436;2023-07-29T09:06:59;100697.22;;;26.07;92.93
61318;BME280;47201;40.428;-8.436;2023-07-29T09:09:01;100699.63;;;26.25;92.03
61318;BME280;47201;40.428;-8.436;2023-07-29T09:11:02;100689.78;;;26.25;90.94
61318;BME280;47201;40.428;-8.436;2023-07-29T09:13:03;100699.88;;;26.48;90.67
61318;BME280;47201;40.428;-8.436;2023-07-29T09:15:04;100696.03;;;27.03;87.59
61318;BME280;47201;40.428;-8.436;2023-07-29T09:17:09;100698.31;;;27.84;82.55
61318;BME280;47201;40.428;-8.436;2023-07-29T09:19:10;100696.81;;;28.28;79.02
61318;BME280;47201;40.428;-8.436;2023-07-29T09:21:11;100701.41;;;28.62;77.13
61318;BME280;47201;40.428;-8.436;2023-07-29T09:23:12;100699.06;;;28.69;76.42
61318;BME280;47201;40.428;-8.436;2023-07-29T09:25:12;100697.41;;;28.79;75.86
61318;BME280;47201;40.428;-8.436;2023-07-29T09:27:27;100694.63;;;28.45;76.96
61318;BME280;47201;40.428;-8.436;2023-07-29T09:29:28;100696.47;;;27.84;79.30
61318;BME280;47201;40.428;-8.436;2023-07-29T09:31:29;100708.22;;;27.33;81.97
61318;BME280;47201;40.428;-8.436;2023-07-29T09:33:34;100705.78;;;27.30;82.22
61318;BME280;47201;40.428;-8.436;2023-07-29T09:35:38;100707.00;;;27.13;82.46
61318;BME280;47201;40.428;-8.436;2023-07-29T09:37:39;100706.16;;;26.87;83.59
61318;BME280;47201;40.428;-8.436;2023-07-29T09:39:44;100706.38;;;26.97;83.39
61318;BME280;47201;40.428;-8.436;2023-07-29T09:41:47;100697.44;;;26.96;84.13
61318;BME280;47201;40.428;-8.436;2023-07-29T09:44:01;100700.13;;;26.70;85.51
61318;BME280;47201;40.428;-8.436;2023-07-29T09:46:03;100698.44;;;26.82;85.40
61318;BME280;47201;40.428;-8.436;2023-07-29T09:48:05;100698.09;;;26.74;85.68
61318;BME280;47201;40.428;-8.436;2023-07-29T09:50:09;100700.03;;;26.85;85.17
61318;BME280;47201;40.428;-8.436;2023-07-29T09:52:10;100697.34;;;26.85;85.72
61318;BME280;47201;40.428;-8.436;2023-07-29T09:54:11;100698.72;;;27.03;84.64
61318;BME280;47201;40.428;-8.436;2023-07-29T09:56:14;100698.88;;;27.26;83.59
61318;BME280;47201;40.428;-8.436;2023-07-29T09:58:19;100706.50;;;27.45;81.67
61318;BME280;47201;40.428;-8.436;2023-07-29T10:00:20;100704.19;;;27.65;81.27
61318;BME280;47201;40.428;-8.436;2023-07-29T10:02:21;100711.13;;;27.80;80.37
61318;BME280;47201;40.428;-8.436;2023-07-29T10:04:22;100702.25;;;27.91;80.06
61318;BME280;47201;40.428;-8.436;2023-07-29T10:06:24;100711.88;;;28.07;79.48
61318;BME280;47201;40.428;-8.436;2023-07-29T10:08:25;100710.16;;;28.06;79.13
61318;BME280;47201;40.428;-8.436;2023-07-29T10:10:27;100723.50;;;27.94;78.98
61318;BME280;47201;40.428;-8.436;2023-07-29T10:12:28;100711.63;;;27.61;81.20
61318;BME280;47201;40.428;-8.436;2023-07-29T10:14:30;100716.00;;;26.99;85.43
61318;BME280;47201;40.428;-8.436;2023-07-29T10:16:32;100722.81;;;26.52;88.26
61318;BME280;47201;40.428;-8.436;2023-07-29T10:18:33;100719.00;;;26.16;90.87
61318;BME280;47201;40.428;-8.436;2023-07-29T10:20:35;100720.53;;;25.92;93.06
61318;BME280;47201;40.428;-8.436;2023-07-29T10:22:37;100717.09;;;25.34;97.53
61318;BME280;47201;40.428;-8.436;2023-07-29T10:24:39;100716.53;;;25.29;98.49
61318;BME280;47201;40.428;-8.436;2023-07-29T10:26:46;100714.25;;;25.52;98.10